sensor_id;sensor_type;location;lat;lon;timestamp;temperature;humidity
50067;DHT22;35952;52.524;13.340;2024-02-04T00:01:19;8.60;99.90
50067;DHT22;35952;52.524;13.340;2024-02-04T00:03:44;8.60;99.90
50067;DHT22;35952;52.524;13.340;2024-02-04T00:06:10;8.60;99.90
50067;DHT22;35952;52.524;13.340;2024-02-04T00:08:36;8.60;99.90
50067;DHT22;35952;52.524;13.340;2024-02-04T00:11:02;8.60;99.90
50067;DHT22;35952;52.524;13.340;2024-02-04T00:13:30;8.60;99.90
50067;DHT22;35952;52.524;13.340;2024-02-04T00:15:55;8.60;99.90
50067;DHT22;35952;52.524;13.340;2024-02-04T00:18:24;8.70;99.90
50067;DHT22;35952;52.524;13.340;2024-02-04T00:20:49;8.70;99.90
50067;DHT22;35952;52.524;13.340;2024-02-04T00:23:15;8.60;99.90
50067;DHT22;35952;52.524;13.340;2024-02-04T00:25:40;8.60;99.90
50067;DHT22;35952;52.524;13.340;2024-02-04T00:28:07;8.70;99.90
50067;DHT22;35952;52.524;13.340;2024-02-04T00:30:32;8.70;99.90
50067;DHT22;35952;52.524;13.340;2024-02-04T00:32:58;8.60;99.90
50067;DHT22;35952;52.524;13.340;2024-02-04T00:35:28;8.60;99.90
50067;DHT22;35952;52.524;13.340;2024-02-04T00:37:54;8.60;99.90
50067;DHT22;35952;52.524;13.340;2024-02-04T00:40:19;8.60;99.90
50067;DHT22;35952;52.524;13.340;2024-02-04T00:42:45;8.50;99.90
50067;DHT22;35952;52.524;13.340;2024-02-04T00:45:11;8.40;99.90
50067;DHT22;35952;52.524;13.340;2024-02-04T00:47:36;8.30;99.90
50067;DHT22;35952;52.524;13.340;2024-02-04T00:50:02;8.30;99.90
50067;DHT22;35952;52.524;13.340;2024-02-04T00:52:27;8.30;99.90
50067;DHT22;35952;52.524;13.340;2024-02-04T00:54:53;8.20;99.90
50067;DHT22;35952;52.524;13.340;2024-02-04T00:57:19;8.10;99.90
50067;DHT22;35952;52.524;13.340;2024-02-04T00:59:44;8.10;99.90
50067;DHT22;35952;52.524;13.340;2024-02-04T01:02:10;8.00;99.90
50067;DHT22;35952;52.524;13.340;2024-02-04T01:04:35;7.90;99.90
50067;DHT22;35952;52.524;13.340;2024-02-04T01:07:01;7.90;99.90
50067;DHT22;35952;52.524;13.340;2024-02-04T01:09:27;7.80;99.90
50067;DHT22;35952;52.524;13.340;2024-02-04T01:11:53;7.70;99.90
50067;DHT22;35952;52.524;13.340;2024-02-04T01:14:18;7.70;99.90
50067;DHT22;35952;52.524;13.340;2024-02-04T01:16:44;7.70;99.90
50067;DHT22;35952;52.524;13.340;2024-02-04T01:19:09;7.80;99.90
50067;DHT22;35952;52.524;13.340;2024-02-04T01:21:35;7.70;99.90
50067;DHT22;35952;52.524;13.340;2024-02-04T01:24:00;7.70;99.90
50067;DHT22;35952;52.524;13.340;2024-02-04T01:26:26;7.70;99.90
50067;DHT22;35952;52.524;13.340;2024-02-04T01:28:51;7.60;99.90
50067;DHT22;35952;52.524;13.340;2024-02-04T01:31:17;7.60;99.90
50067;DHT22;35952;52.524;13.340;2024-02-04T01:33:42;7.50;99.90
50067;DHT22;35952;52.524;13.340;2024-02-04T01:36:08;7.60;99.90
50067;DHT22;35952;52.524;13.340;2024-02-04T01:38:33;7.70;99.90
50067;DHT22;35952;52.524;13.340;2024-02-04T01:40:59;7.70;99.90
50067;DHT22;35952;52.524;13.340;2024-02-04T01:43:24;7.70;99.90
50067;DHT22;35952;52.524;13.340;2024-02-04T01:45:50;7.70;99.90
50067;DHT22;35952;52.524;13.340;2024-02-04T01:48:18;7.60;99.90
50067;DHT22;35952;52.524;13.340;2024-02-04T01:50:44;7.60;99.90
50067;DHT22;35952;52.524;13.340;2024-02-04T01:53:10;7.60;99.90
50067;DHT22;35952;52.524;13.340;2024-02-04T01:55:36;7.50;99.90
50067;DHT22;35952;52.524;13.340;2024-02-04T01:58:04;7.50;99.90
50067;DHT22;35952;52.524;13.340;2024-02-04T02:00:30;7.50;99.90
50067;DHT22;35952;52.524;13.340;2024-02-04T02:02:56;7.40;99.90
50067;DHT22;35952;52.524;13.340;2024-02-04T02:05:23;7.40;99.90
50067;DHT22;35952;52.524;13.340;2024-02-04T02:07:48;7.30;99.90
50067;DHT22;35952;52.524;13.340;2024-02-04T02:10:19;7.30;99.90
50067;DHT22;35952;52.524;13.340;2024-02-04T02:12:52;7.30;99.90
50067;DHT22;35952;52.524;13.340;2024-02-04T02:15:25;7.30;99.90
50067;DHT22;35952;52.524;13.340;2024-02-04T02:18:05;7.30;99.90
50067;DHT22;35952;52.524;13.340;2024-02-04T02:23:22;7.40;99.90
50067;DHT22;35952;52.524;13.340;2024-02-04T02:25:53;7.30;99.90
50067;DHT22;35952;52.524;13.340;2024-02-04T02:28:19;7.20;99.90
50067;DHT22;35952;52.524;13.340;2024-02-04T02:30:44;7.20;99.90
50067;DHT22;35952;52.524;13.340;2024-02-04T02:33:10;7.20;99.90
50067;DHT22;35952;52.524;13.340;2024-02-04T02:35:36;7.20;99.90
50067;DHT22;35952;52.524;13.340;2024-02-04T02:38:31;7.20;99.90
50067;DHT22;35952;52.524;13.340;2024-02-04T02:41:00;7.10;99.90
50067;DHT22;35952;52.524;13.340;2024-02-04T02:43:27;7.20;99.90
50067;DHT22;35952;52.524;13.340;2024-02-04T02:45:53;7.20;99.90
50067;DHT22;35952;52.524;13.340;2024-02-04T02:48:19;7.10;99.90
50067;DHT22;35952;52.524;13.340;2024-02-04T02:50:44;7.20;99.90
50067;DHT22;35952;52.524;13.340;2024-02-04T02:53:10;7.20;99.90
50067;DHT22;35952;52.524;13.340;2024-02-04T02:55:36;7.20;99.90
50067;DHT22;35952;52.524;13.340;2024-02-04T02:58:01;7.30;99.90
50067;DHT22;35952;52.524;13.340;2024-02-04T03:00:27;7.30;99.90
50067;DHT22;35952;52.524;13.340;2024-02-04T03:02:53;7.30;99.90
50067;DHT22;35952;52.524;13.340;2024-02-04T03:05:18;7.30;99.90
50067;DHT22;35952;52.524;13.340;2024-02-04T03:07:44;7.30;99.90
50067;DHT22;35952;52.524;13.340;2024-02-04T03:10:09;7.30;99.90
50067;DHT22;35952;52.524;13.340;2024-02-04T03:12:35;7.30;99.90
50067;DHT22;35952;52.524;13.340;2024-02-04T03:15:01;7.40;99.90
50067;DHT22;35952;52.524;13.340;2024-02-04T03:17:26;7.50;99.90
50067;DHT22;35952;52.524;13.340;2024-02-04T03:19:52;7.50;99.90
50067;DHT22;35952;52.524;13.340;2024-02-04T03:22:20;7.50;99.90
50067;DHT22;35952;52.524;13.340;2024-02-04T03:24:47;7.50;99.90
50067;DHT22;35952;52.524;13.340;2024-02-04T03:27:12;7.50;99.90
50067;DHT22;35952;52.524;13.340;2024-02-04T03:29:38;7.50;99.90
50067;DHT22;35952;52.524;13.340;2024-02-04T03:32:04;7.50;99.90
50067;DHT22;35952;52.524;13.340;2024-02-04T03:34:29;7.60;99.90
50067;DHT22;35952;52.524;13.340;2024-02-04T03:36:55;7.60;99.90
50067;DHT22;35952;52.524;13.340;2024-02-04T03:39:20;7.60;99.90
50067;DHT22;35952;52.524;13.340;2024-02-04T03:41:46;7.60;99.90
50067;DHT22;35952;52.524;13.340;2024-02-04T03:44:11;7.60;99.90
50067;DHT22;35952;52.524;13.340;2024-02-04T03:46:37;7.60;99.90
50067;DHT22;35952;52.524;13.340;2024-02-04T03:49:06;7.60;99.90
50067;DHT22;35952;52.524;13.340;2024-02-04T03:51:31;7.60;99.90
50067;DHT22;35952;52.524;13.340;2024-02-04T03:53:57;7.70;99.90
50067;DHT22;35952;52.524;13.340;2024-02-04T03:56:22;7.70;99.90
50067;DHT22;35952;52.524;13.340;2024-02-04T03:58:48;7.70;99.90
50067;DHT22;35952;52.524;13.340;2024-02-04T04:01:13;7.70;99.90
50067;DHT22;35952;52.524;13.340;2024-02-04T04:03:42;7.60;99.90
50067;DHT22;35952;52.524;13.340;2024-02-04T04:06:09;7.60;99.90
50067;DHT22;35952;52.524;13.340;2024-02-04T04:08:36;7.60;99.90
50067;DHT22;35952;52.524;13.340;2024-02-04T04:11:02;7.60;99.90
50067;DHT22;35952;52.524;13.340;2024-02-04T04:13:28;7.50;99.90
50067;DHT22;35952;52.524;13.340;2024-02-04T04:15:53;7.50;99.90
50067;DHT22;35952;52.524;13.340;2024-02-04T04:18:19;7.40;99.90
50067;DHT22;35952;52.524;13.340;2024-02-04T04:20:46;7.40;99.90
50067;DHT22;35952;52.524;13.340;2024-02-04T04:23:12;7.30;99.90
50067;DHT22;35952;52.524;13.340;2024-02-04T04:25:38;7.30;99.90
50067;DHT22;35952;52.524;13.340;2024-02-04T04:28:04;7.30;99.90
50067;DHT22;35952;52.524;13.340;2024-02-04T04:30:29;7.30;99.90
50067;DHT22;35952;52.524;13.340;2024-02-04T04:32:56;7.20;99.90
50067;DHT22;35952;52.524;13.340;2024-02-04T04:35:21;7.20;99.90
50067;DHT22;35952;52.524;13.340;2024-02-04T04:37:47;7.20;99.90
50067;DHT22;35952;52.524;13.340;2024-02-04T04:40:13;7.20;99.90
50067;DHT22;35952;52.524;13.340;2024-02-04T04:42:38;7.10;99.90
50067;DHT22;35952;52.524;13.340;2024-02-04T04:45:04;7.10;99.90
50067;DHT22;35952;52.524;13.340;2024-02-04T04:47:30;7.10;99.90
50067;DHT22;35952;52.524;13.340;2024-02-04T04:49:55;7.10;99.90
50067;DHT22;35952;52.524;13.340;2024-02-04T04:52:20;7.10;99.90
50067;DHT22;35952;52.524;13.340;2024-02-04T04:54:46;7.10;99.90
50067;DHT22;35952;52.524;13.340;2024-02-04T04:57:11;7.10;99.90
50067;DHT22;35952;52.524;13.340;2024-02-04T04:59:37;7.10;99.90
50067;DHT22;35952;52.524;13.340;2024-02-04T05:02:03;7.10;99.90
50067;DHT22;35952;52.524;13.340;2024-02-04T05:04:29;7.10;99.90
50067;DHT22;35952;52.524;13.340;2024-02-04T05:06:55;7.10;99.90
50067;DHT22;35952;52.524;13.340;2024-02-04T05:09:21;7.10;99.90
50067;DHT22;35952;52.524;13.340;2024-02-04T05:11:46;7.10;99.90
50067;DHT22;35952;52.524;13.340;2024-02-04T05:14:11;7.00;99.90
50067;DHT22;35952;52.524;13.340;2024-02-04T05:16:37;7.00;99.90
50067;DHT22;35952;52.524;13.340;2024-02-04T05:19:03;7.00;99.90
50067;DHT22;35952;52.524;13.340;2024-02-04T05:21:28;7.00;99.90
50067;DHT22;35952;52.524;13.340;2024-02-04T05:23:54;6.90;99.90
50067;DHT22;35952;52.524;13.340;2024-02-04T05:26:20;6.90;99.90
50067;DHT22;35952;52.524;13.340;2024-02-04T05:28:45;6.90;99.90
50067;DHT22;35952;52.524;13.340;2024-02-04T05:31:11;6.90;99.90
50067;DHT22;35952;52.524;13.340;2024-02-04T05:33:37;6.90;99.90
50067;DHT22;35952;52.524;13.340;2024-02-04T05:36:03;6.90;99.90
50067;DHT22;35952;52.524;13.340;2024-02-04T05:38:29;6.90;99.90
50067;DHT22;35952;52.524;13.340;2024-02-04T05:40:54;6.90;99.90
50067;DHT22;35952;52.524;13.340;2024-02-04T05:43:20;6.90;99.90
50067;DHT22;35952;52.524;13.340;2024-02-04T05:45:46;6.90;99.90
50067;DHT22;35952;52.524;13.340;2024-02-04T05:48:11;6.90;99.90
50067;DHT22;35952;52.524;13.340;2024-02-04T05:50:37;6.90;99.90
50067;DHT22;35952;52.524;13.340;2024-02-04T05:53:02;7.00;99.90
50067;DHT22;35952;52.524;13.340;2024-02-04T05:55:29;7.00;99.90
50067;DHT22;35952;52.524;13.340;2024-02-04T05:57:54;7.00;99.90
50067;DHT22;35952;52.524;13.340;2024-02-04T06:00:20;7.10;99.90
50067;DHT22;35952;52.524;13.340;2024-02-04T06:02:45;7.10;99.90
50067;DHT22;35952;52.524;13.340;2024-02-04T06:05:12;7.10;99.90
50067;DHT22;35952;52.524;13.340;2024-02-04T06:07:38;7.10;99.90
50067;DHT22;35952;52.524;13.340;2024-02-04T06:10:04;7.10;99.90
50067;DHT22;35952;52.524;13.340;2024-02-04T06:12:30;7.10;99.90
50067;DHT22;35952;52.524;13.340;2024-02-04T06:14:55;7.00;99.90
50067;DHT22;35952;52.524;13.340;2024-02-04T06:17:21;7.10;99.90
50067;DHT22;35952;52.524;13.340;2024-02-04T06:19:46;7.10;99.90
50067;DHT22;35952;52.524;13.340;2024-02-04T06:22:12;7.20;99.90
50067;DHT22;35952;52.524;13.340;2024-02-04T06:24:37;7.20;99.90
50067;DHT22;35952;52.524;13.340;2024-02-04T06:27:06;7.20;99.90
50067;DHT22;35952;52.524;13.340;2024-02-04T06:29:32;7.20;99.90
50067;DHT22;35952;52.524;13.340;2024-02-04T06:31:57;7.20;99.90
50067;DHT22;35952;52.524;13.340;2024-02-04T06:34:23;7.10;99.90
50067;DHT22;35952;52.524;13.340;2024-02-04T06:36:49;7.00;99.90
50067;DHT22;35952;52.524;13.340;2024-02-04T06:39:15;7.10;99.90
50067;DHT22;35952;52.524;13.340;2024-02-04T06:41:41;7.10;99.90
50067;DHT22;35952;52.524;13.340;2024-02-04T06:44:06;7.10;99.90
50067;DHT22;35952;52.524;13.340;2024-02-04T06:46:31;7.10;99.90
50067;DHT22;35952;52.524;13.340;2024-02-04T06:48:57;7.10;99.90
50067;DHT22;35952;52.524;13.340;2024-02-04T06:51:23;7.10;99.90
50067;DHT22;35952;52.524;13.340;2024-02-04T06:53:48;7.10;99.90
50067;DHT22;35952;52.524;13.340;2024-02-04T06:56:14;7.00;99.90
50067;DHT22;35952;52.524;13.340;2024-02-04T06:58:40;7.00;99.90
50067;DHT22;35952;52.524;13.340;2024-02-04T07:01:06;7.00;99.90
50067;DHT22;35952;52.524;13.340;2024-02-04T07:03:31;7.00;99.90
50067;DHT22;35952;52.524;13.340;2024-02-04T07:05:58;6.90;99.90
50067;DHT22;35952;52.524;13.340;2024-02-04T07:08:24;7.00;99.90
50067;DHT22;35952;52.524;13.340;2024-02-04T07:10:50;7.10;99.90
50067;DHT22;35952;52.524;13.340;2024-02-04T07:13:16;7.10;99.90
50067;DHT22;35952;52.524;13.340;2024-02-04T07:15:42;7.20;99.90
50067;DHT22;35952;52.524;13.340;2024-02-04T07:18:07;7.20;99.90
50067;DHT22;35952;52.524;13.340;2024-02-04T07:20:33;7.20;99.90
50067;DHT22;35952;52.524;13.340;2024-02-04T07:22:58;7.20;99.90
50067;DHT22;35952;52.524;13.340;2024-02-04T07:25:24;7.20;99.90
50067;DHT22;35952;52.524;13.340;2024-02-04T07:27:50;7.20;99.90
50067;DHT22;35952;52.524;13.340;2024-02-04T07:30:15;7.20;99.90
50067;DHT22;35952;52.524;13.340;2024-02-04T07:32:41;7.30;99.90
50067;DHT22;35952;52.524;13.340;2024-02-04T07:35:07;7.30;99.90
50067;DHT22;35952;52.524;13.340;2024-02-04T07:37:34;7.30;99.90
50067;DHT22;35952;52.524;13.340;2024-02-04T07:40:00;7.40;99.90
50067;DHT22;35952;52.524;13.340;2024-02-04T07:42:26;7.40;99.90
50067;DHT22;35952;52.524;13.340;2024-02-04T07:44:53;7.50;99.90
50067;DHT22;35952;52.524;13.340;2024-02-04T07:47:18;7.50;99.90
50067;DHT22;35952;52.524;13.340;2024-02-04T07:49:47;7.50;99.90
50067;DHT22;35952;52.524;13.340;2024-02-04T07:52:12;7.60;99.90
50067;DHT22;35952;52.524;13.340;2024-02-04T07:54:38;7.60;99.90
50067;DHT22;35952;52.524;13.340;2024-02-04T07:57:03;7.70;99.90
50067;DHT22;35952;52.524;13.340;2024-02-04T07:59:29;7.70;99.90
50067;DHT22;35952;52.524;13.340;2024-02-04T08:01:54;7.70;99.90
50067;DHT22;35952;52.524;13.340;2024-02-04T08:04:20;7.80;99.90
50067;DHT22;35952;52.524;13.340;2024-02-04T08:06:46;7.90;99.90
50067;DHT22;35952;52.524;13.340;2024-02-04T08:09:12;7.90;99.90
50067;DHT22;35952;52.524;13.340;2024-02-04T08:11:38;7.90;99.90
50067;DHT22;35952;52.524;13.340;2024-02-04T08:14:03;7.90;99.90
50067;DHT22;35952;52.524;13.340;2024-02-04T08:16:29;8.00;99.90
50067;DHT22;35952;52.524;13.340;2024-02-04T08:18:55;8.00;99.90
50067;DHT22;35952;52.524;13.340;2024-02-04T08:21:20;8.00;99.90
50067;DHT22;35952;52.524;13.340;2024-02-04T08:23:45;8.10;99.90
50067;DHT22;35952;52.524;13.340;2024-02-04T08:26:11;8.10;99.90
50067;DHT22;35952;52.524;13.340;2024-02-04T08:28:37;8.20;99.90
50067;DHT22;35952;52.524;13.340;2024-02-04T08:31:02;8.20;99.90
50067;DHT22;35952;52.524;13.340;2024-02-04T08:33:28;8.20;99.90
50067;DHT22;35952;52.524;13.340;2024-02-04T08:35:53;8.20;99.90
50067;DHT22;35952;52.524;13.340;2024-02-04T08:38:19;8.10;99.90
50067;DHT22;35952;52.524;13.340;2024-02-04T08:40:44;8.20;99.90
50067;DHT22;35952;52.524;13.340;2024-02-04T08:43:10;8.20;99.90
50067;DHT22;35952;52.524;13.340;2024-02-04T08:45:35;8.20;99.90
50067;DHT22;35952;52.524;13.340;2024-02-04T08:48:01;8.20;99.90
50067;DHT22;35952;52.524;13.340;2024-02-04T08:50:27;8.30;99.90
50067;DHT22;35952;52.524;13.340;2024-02-04T08:52:52;8.30;99.90
50067;DHT22;35952;52.524;13.340;2024-02-04T08:55:18;8.30;99.90
50067;DHT22;35952;52.524;13.340;2024-02-04T08:57:44;8.30;99.90
50067;DHT22;35952;52.524;13.340;2024-02-04T09:00:10;8.30;99.90
50067;DHT22;35952;52.524;13.340;2024-02-04T09:02:37;8.30;99.90
50067;DHT22;35952;52.524;13.340;2024-02-04T09:05:03;8.40;99.90
50067;DHT22;35952;52.524;13.340;2024-02-04T09:07:30;8.40;99.90
50067;DHT22;35952;52.524;13.340;2024-02-04T09:09:56;8.40;99.90
50067;DHT22;35952;52.524;13.340;2024-02-04T09:12:22;8.50;99.90
50067;DHT22;35952;52.524;13.340;2024-02-04T09:14:47;8.50;99.90
50067;DHT22;35952;52.524;13.340;2024-02-04T09:17:13;8.50;99.90
50067;DHT22;35952;52.524;13.340;2024-02-04T09:19:39;8.50;99.90
50067;DHT22;35952;52.524;13.340;2024-02-04T09:22:04;8.60;99.90
50067;DHT22;35952;52.524;13.340;2024-02-04T09:24:30;8.60;99.90
50067;DHT22;35952;52.524;13.340;2024-02-04T09:26:56;8.60;99.90
50067;DHT22;35952;52.524;13.340;2024-02-04T09:29:21;8.60;99.90
50067;DHT22;35952;52.524;13.340;2024-02-04T09:31:47;8.70;99.90
50067;DHT22;35952;52.524;13.340;2024-02-04T09:34:15;8.70;99.90
50067;DHT22;35952;52.524;13.340;2024-02-04T09:36:40;8.80;99.90
50067;DHT22;35952;52.524;13.340;2024-02-04T09:39:06;8.80;99.90
50067;DHT22;35952;52.524;13.340;2024-02-04T09:41:31;8.80;99.90
50067;DHT22;35952;52.524;13.340;2024-02-04T09:43:58;8.80;99.90
50067;DHT22;35952;52.524;13.340;2024-02-04T09:46:24;8.90;99.90
50067;DHT22;35952;52.524;13.340;2024-02-04T09:48:51;8.90;99.90
50067;DHT22;35952;52.524;13.340;2024-02-04T09:51:18;8.90;99.90
50067;DHT22;35952;52.524;13.340;2024-02-04T09:53:44;9.00;99.90
50067;DHT22;35952;52.524;13.340;2024-02-04T09:56:11;9.10;99.90
50067;DHT22;35952;52.524;13.340;2024-02-04T09:58:37;9.20;99.90
50067;DHT22;35952;52.524;13.340;2024-02-04T10:01:06;9.30;99.90
50067;DHT22;35952;52.524;13.340;2024-02-04T10:03:35;9.20;99.90
50067;DHT22;35952;52.524;13.340;2024-02-04T10:06:00;9.20;99.90
50067;DHT22;35952;52.524;13.340;2024-02-04T10:08:26;9.20;99.90
50067;DHT22;35952;52.524;13.340;2024-02-04T10:10:52;9.30;99.90
50067;DHT22;35952;52.524;13.340;2024-02-04T10:13:19;9.20;99.90
50067;DHT22;35952;52.524;13.340;2024-02-04T10:15:45;9.20;99.90
50067;DHT22;35952;52.524;13.340;2024-02-04T10:18:10;9.20;99.90
50067;DHT22;35952;52.524;13.340;2024-02-04T10:20:36;9.30;99.90
50067;DHT22;35952;52.524;13.340;2024-02-04T10:23:02;9.20;99.90
50067;DHT22;35952;52.524;13.340;2024-02-04T10:25:28;9.20;99.90
50067;DHT22;35952;52.524;13.340;2024-02-04T10:27:53;9.30;99.90
50067;DHT22;35952;52.524;13.340;2024-02-04T10:30:20;9.40;99.90
50067;DHT22;35952;52.524;13.340;2024-02-04T10:32:47;9.50;99.90
50067;DHT22;35952;52.524;13.340;2024-02-04T10:35:12;9.50;99.90
50067;DHT22;35952;52.524;13.340;2024-02-04T10:37:38;9.70;99.90
50067;DHT22;35952;52.524;13.340;2024-02-04T10:40:04;9.60;99.90
50067;DHT22;35952;52.524;13.340;2024-02-04T10:42:31;9.60;99.90
50067;DHT22;35952;52.524;13.340;2024-02-04T10:44:58;9.50;99.90
50067;DHT22;35952;52.524;13.340;2024-02-04T10:47:31;9.50;99.90
50067;DHT22;35952;52.524;13.340;2024-02-04T10:49:58;9.40;99.90
50067;DHT22;35952;52.524;13.340;2024-02-04T10:52:37;9.40;99.90
50067;DHT22;35952;52.524;13.340;2024-02-04T10:55:11;9.30;99.90
50067;DHT22;35952;52.524;13.340;2024-02-04T10:57:38;9.40;99.90
50067;DHT22;35952;52.524;13.340;2024-02-04T11:00:05;9.50;99.90
50067;DHT22;35952;52.524;13.340;2024-02-04T11:02:34;9.50;99.90
50067;DHT22;35952;52.524;13.340;2024-02-04T11:05:02;9.50;99.90
50067;DHT22;35952;52.524;13.340;2024-02-04T11:07:32;9.50;99.90
50067;DHT22;35952;52.524;13.340;2024-02-04T11:09:58;9.50;99.90
50067;DHT22;35952;52.524;13.340;2024-02-04T11:12:24;9.50;99.90
50067;DHT22;35952;52.524;13.340;2024-02-04T11:14:54;9.50;99.90
50067;DHT22;35952;52.524;13.340;2024-02-04T11:17:39;9.40;99.90
50067;DHT22;35952;52.524;13.340;2024-02-04T11:20:40;9.40;99.90
50067;DHT22;35952;52.524;13.340;2024-02-04T11:25:54;9.30;99.90
50067;DHT22;35952;52.524;13.340;2024-02-04T11:28:21;9.40;99.90
50067;DHT22;35952;52.524;13.340;2024-02-04T11:30:48;9.50;99.90
50067;DHT22;35952;52.524;13.340;2024-02-04T11:33:18;9.50;99.90
50067;DHT22;35952;52.524;13.340;2024-02-04T11:35:44;9.40;99.90
50067;DHT22;35952;52.524;13.340;2024-02-04T11:38:09;9.40;99.90
50067;DHT22;35952;52.524;13.340;2024-02-04T11:40:37;9.40;99.90
50067;DHT22;35952;52.524;13.340;2024-02-04T11:43:07;9.20;99.90
50067;DHT22;35952;52.524;13.340;2024-02-04T11:45:36;9.20;99.90
50067;DHT22;35952;52.524;13.340;2024-02-04T11:48:06;9.20;99.90
50067;DHT22;35952;52.524;13.340;2024-02-04T11:50:31;9.20;99.90
50067;DHT22;35952;52.524;13.340;2024-02-04T11:53:10;9.20;99.90
50067;DHT22;35952;52.524;13.340;2024-02-04T11:55:38;9.20;99.90
50067;DHT22;35952;52.524;13.340;2024-02-04T11:58:07;9.20;99.90
50067;DHT22;35952;52.524;13.340;2024-02-04T12:00:34;9.30;99.90
50067;DHT22;35952;52.524;13.340;2024-02-04T12:03:04;9.40;99.90
50067;DHT22;35952;52.524;13.340;2024-02-04T12:05:35;9.50;99.90
50067;DHT22;35952;52.524;13.340;2024-02-04T12:08:05;9.60;99.90
50067;DHT22;35952;52.524;13.340;2024-02-04T12:10:32;9.60;99.90
50067;DHT22;35952;52.524;13.340;2024-02-04T12:13:03;9.60;99.90
50067;DHT22;35952;52.524;13.340;2024-02-04T12:15:29;9.60;99.90
50067;DHT22;35952;52.524;13.340;2024-02-04T12:18:11;9.60;99.90
50067;DHT22;35952;52.524;13.340;2024-02-04T12:20:37;9.50;99.90
50067;DHT22;35952;52.524;13.340;2024-02-04T12:23:07;9.50;99.90
50067;DHT22;35952;52.524;13.340;2024-02-04T12:25:33;9.30;99.90
50067;DHT22;35952;52.524;13.340;2024-02-04T12:28:01;9.30;99.90
50067;DHT22;35952;52.524;13.340;2024-02-04T12:30:33;9.30;99.90
50067;DHT22;35952;52.524;13.340;2024-02-04T12:33:03;9.30;99.90
50067;DHT22;35952;52.524;13.340;2024-02-04T12:35:30;9.20;99.90
50067;DHT22;35952;52.524;13.340;2024-02-04T12:37:57;9.20;99.90
50067;DHT22;35952;52.524;13.340;2024-02-04T12:40:27;9.20;99.90
50067;DHT22;35952;52.524;13.340;2024-02-04T12:45:21;9.30;99.90
50067;DHT22;35952;52.524;13.340;2024-02-04T12:47:52;9.30;99.90
50067;DHT22;35952;52.524;13.340;2024-02-04T12:50:18;9.20;99.90
50067;DHT22;35952;52.524;13.340;2024-02-04T12:52:48;9.20;99.90
50067;DHT22;35952;52.524;13.340;2024-02-04T12:55:23;9.20;99.90
50067;DHT22;35952;52.524;13.340;2024-02-04T12:57:49;9.20;99.90
50067;DHT22;35952;52.524;13.340;2024-02-04T13:00:18;9.20;99.90
50067;DHT22;35952;52.524;13.340;2024-02-04T13:02:44;9.20;99.90
50067;DHT22;35952;52.524;13.340;2024-02-04T13:05:22;9.20;99.90
50067;DHT22;35952;52.524;13.340;2024-02-04T13:07:54;9.20;99.90
50067;DHT22;35952;52.524;13.340;2024-02-04T13:10:24;9.20;99.90
50067;DHT22;35952;52.524;13.340;2024-02-04T13:13:03;9.20;99.90
50067;DHT22;35952;52.524;13.340;2024-02-04T13:15:32;9.20;99.90
50067;DHT22;35952;52.524;13.340;2024-02-04T13:17:58;9.20;99.90
50067;DHT22;35952;52.524;13.340;2024-02-04T13:20:25;9.20;99.90
50067;DHT22;35952;52.524;13.340;2024-02-04T13:22:50;9.20;99.90
50067;DHT22;35952;52.524;13.340;2024-02-04T13:25:19;9.20;99.90
50067;DHT22;35952;52.524;13.340;2024-02-04T13:27:45;9.20;99.90
50067;DHT22;35952;52.524;13.340;2024-02-04T13:30:10;9.30;99.90
50067;DHT22;35952;52.524;13.340;2024-02-04T13:32:39;9.30;99.90
50067;DHT22;35952;52.524;13.340;2024-02-04T13:35:06;9.20;99.90
50067;DHT22;35952;52.524;13.340;2024-02-04T13:37:32;9.20;99.90
50067;DHT22;35952;52.524;13.340;2024-02-04T13:39:58;9.20;99.90
50067;DHT22;35952;52.524;13.340;2024-02-04T13:42:23;9.20;99.90
50067;DHT22;35952;52.524;13.340;2024-02-04T13:44:49;9.20;99.90
50067;DHT22;35952;52.524;13.340;2024-02-04T13:47:15;9.20;99.90
50067;DHT22;35952;52.524;13.340;2024-02-04T13:49:40;9.20;99.90
50067;DHT22;35952;52.524;13.340;2024-02-04T13:52:06;9.10;99.90
50067;DHT22;35952;52.524;13.340;2024-02-04T13:54:31;9.10;99.90
50067;DHT22;35952;52.524;13.340;2024-02-04T13:56:57;9.10;99.90
50067;DHT22;35952;52.524;13.340;2024-02-04T13:59:22;9.10;99.90
50067;DHT22;35952;52.524;13.340;2024-02-04T14:01:48;9.10;99.90
50067;DHT22;35952;52.524;13.340;2024-02-04T14:04:15;9.00;99.90
50067;DHT22;35952;52.524;13.340;2024-02-04T14:06:40;9.10;99.90
50067;DHT22;35952;52.524;13.340;2024-02-04T14:09:06;9.10;99.90
50067;DHT22;35952;52.524;13.340;2024-02-04T14:11:32;9.10;99.90
50067;DHT22;35952;52.524;13.340;2024-02-04T14:13:57;9.10;99.90
50067;DHT22;35952;52.524;13.340;2024-02-04T14:16:23;9.10;99.90
50067;DHT22;35952;52.524;13.340;2024-02-04T14:18:48;9.10;99.90
50067;DHT22;35952;52.524;13.340;2024-02-04T14:21:14;9.10;99.90
50067;DHT22;35952;52.524;13.340;2024-02-04T14:23:40;9.10;99.90
50067;DHT22;35952;52.524;13.340;2024-02-04T14:26:05;9.10;99.90
50067;DHT22;35952;52.524;13.340;2024-02-04T14:28:33;9.10;99.90
50067;DHT22;35952;52.524;13.340;2024-02-04T14:31:06;9.10;99.90
50067;DHT22;35952;52.524;13.340;2024-02-04T14:33:32;9.10;99.90
50067;DHT22;35952;52.524;13.340;2024-02-04T14:35:58;9.10;99.90
50067;DHT22;35952;52.524;13.340;2024-02-04T14:38:25;9.10;99.90
50067;DHT22;35952;52.524;13.340;2024-02-04T14:40:50;9.10;99.90
50067;DHT22;35952;52.524;13.340;2024-02-04T14:43:16;9.10;99.90
50067;DHT22;35952;52.524;13.340;2024-02-04T14:45:43;9.10;99.90
50067;DHT22;35952;52.524;13.340;2024-02-04T14:48:09;9.00;99.90
50067;DHT22;35952;52.524;13.340;2024-02-04T14:50:35;9.00;99.90
50067;DHT22;35952;52.524;13.340;2024-02-04T14:53:00;9.00;99.90
50067;DHT22;35952;52.524;13.340;2024-02-04T14:55:27;9.00;99.90
50067;DHT22;35952;52.524;13.340;2024-02-04T14:57:52;9.00;99.90
50067;DHT22;35952;52.524;13.340;2024-02-04T15:00:18;9.00;99.90
50067;DHT22;35952;52.524;13.340;2024-02-04T15:02:46;9.00;99.90
50067;DHT22;35952;52.524;13.340;2024-02-04T15:05:11;9.00;99.90
50067;DHT22;35952;52.524;13.340;2024-02-04T15:07:37;9.00;99.90
50067;DHT22;35952;52.524;13.340;2024-02-04T15:10:02;9.10;99.90
50067;DHT22;35952;52.524;13.340;2024-02-04T15:12:28;9.00;99.90
50067;DHT22;35952;52.524;13.340;2024-02-04T15:14:54;9.10;99.90
50067;DHT22;35952;52.524;13.340;2024-02-04T15:17:20;9.10;99.90
50067;DHT22;35952;52.524;13.340;2024-02-04T15:19:46;9.00;99.90
50067;DHT22;35952;52.524;13.340;2024-02-04T15:22:12;9.10;99.90
50067;DHT22;35952;52.524;13.340;2024-02-04T15:24:38;9.00;99.90
50067;DHT22;35952;52.524;13.340;2024-02-04T15:27:05;9.10;99.90
50067;DHT22;35952;52.524;13.340;2024-02-04T15:29:35;9.10;99.90
50067;DHT22;35952;52.524;13.340;2024-02-04T15:32:02;9.10;99.90
50067;DHT22;35952;52.524;13.340;2024-02-04T15:34:28;9.10;99.90